Time;durP1;ratioP1;P1;durP2;ratioP2;P2;SDS_P1;SDS_P2;PMS_P1;PMS_P2;Temp;Humidity;BMP_temperature;BMP_pressure;BME280_temperature;BME280_humidity;BME280_pressure;Samples;Min_cycle;Max_cycle;Signal;HPM_P1;HPM_P2
2023/07/26 00:00:55;;;;;;;6.72;3.17;;;18.40;86.90;;;;;;7384659;19;20016;-77
2023/07/26 00:03:24;;;;;;;8.57;3.13;;;18.40;86.90;;;;;;7383156;19;20010;-77
2023/07/26 00:05:53;;;;;;;8.15;3.05;;;18.40;86.90;;;;;;7402289;19;20038;-77
2023/07/26 00:08:22;;;;;;;8.15;3.00;;;18.40;86.90;;;;;;7380829;19;20062;-77
2023/07/26 00:10:54;;;;;;;4.93;3.10;;;18.30;86.90;;;;;;7379775;19;20011;-77
2023/07/26 00:13:25;;;;;;;6.45;2.95;;;18.30;86.90;;;;;;7380778;19;20015;-77
2023/07/26 00:15:54;;;;;;;7.22;2.85;;;18.30;86.50;;;;;;7381150;19;20143;-77
2023/07/26 00:18:23;;;;;;;6.78;2.70;;;18.30;86.90;;;;;;7380298;19;20017;-77
2023/07/26 00:20:51;;;;;;;4.13;2.40;;;18.20;86.90;;;;;;7400934;19;20013;-77
2023/07/26 04:12:38;;;;;;;13.75;3.35;;;16.80;87.20;;;;;;7375060;19;20118;-75
2023/07/26 04:15:08;;;;;;;8.98;2.97;;;16.80;87.40;;;;;;7402761;19;20007;-75
2023/07/26 04:17:36;;;;;;;6.82;3.22;;;16.80;87.60;;;;;;7380432;19;20011;-75
2023/07/26 04:20:06;;;;;;;5.30;2.95;;;16.80;87.60;;;;;;7383280;19;20003;-75
2023/07/26 04:22:34;;;;;;;5.40;2.75;;;16.80;87.60;;;;;;7380356;19;20020;-74
2023/07/26 04:25:03;;;;;;;4.90;2.95;;;16.80;87.60;;;;;;7380074;19;20026;-75
2023/07/26 04:27:32;;;;;;;6.47;2.85;;;16.80;87.90;;;;;;7380270;19;20014;-75
2023/07/26 04:30:04;;;;;;;8.07;3.78;;;16.80;87.70;;;;;;7401501;19;20014;-75
2023/07/26 04:32:32;;;;;;;5.70;3.08;;;16.80;87.60;;;;;;7383112;19;20007;-76
2023/07/26 04:35:01;;;;;;;7.45;3.60;;;16.90;87.40;;;;;;7382949;19;20021;-75
2023/07/26 04:37:30;;;;;;;6.13;3.25;;;16.90;87.20;;;;;;7382855;19;20010;-75
2023/07/26 04:39:59;;;;;;;5.43;3.15;;;16.90;87.00;;;;;;7379880;19;19999;-75
2023/07/26 04:42:29;;;;;;;7.85;3.00;;;16.80;87.00;;;;;;7379290;19;19999;-77
2023/07/26 04:44:58;;;;;;;5.70;3.30;;;16.70;87.30;;;;;;7402176;19;20259;-77
2023/07/26 04:47:29;;;;;;;7.50;3.35;;;16.70;87.50;;;;;;7382561;19;20232;-73
2023/07/26 04:49:58;;;;;;;75.25;5.35;;;16.70;87.70;;;;;;7383539;19;20026;-75
2023/07/26 04:52:26;;;;;;;29.88;4.55;;;16.70;87.80;;;;;;7382829;19;20016;-73
2023/07/26 04:54:56;;;;;;;42.25;3.97;;;16.80;88.00;;;;;;7383200;19;20367;-73
2023/07/26 04:57:24;;;;;;;26.70;3.55;;;16.80;87.90;;;;;;7382549;19;20002;-76
2023/07/26 04:59:53;;;;;;;7.55;3.10;;;16.80;87.90;;;;;;7404875;19;20010;-74
2023/07/26 05:02:22;;;;;;;7.10;3.22;;;16.80;87.70;;;;;;7383051;19;20010;-74
2023/07/26 05:04:53;;;;;;;12.55;3.90;;;16.80;88.00;;;;;;7383128;19;20043;-74
2023/07/26 05:07:22;;;;;;;6.18;3.25;;;16.90;88.00;;;;;;7383269;19;20007;-74
2023/07/26 05:09:51;;;;;;;6.65;3.90;;;16.90;88.20;;;;;;7383060;19;20110;-74
2023/07/26 05:12:19;;;;;;;8.60;3.67;;;17.00;88.00;;;;;;7382212;19;20362;-74
2023/07/26 05:14:48;;;;;;;5.18;3.10;;;17.00;88.00;;;;;;7405409;19;20011;-75
2023/07/26 05:17:17;;;;;;;8.15;3.58;;;17.00;88.30;;;;;;7383890;19;20010;-74
2023/07/26 05:19:45;;;;;;;9.05;3.55;;;17.00;88.30;;;;;;7385631;19;20020;-74
2023/07/26 05:22:17;;;;;;;5.40;3.13;;;17.00;88.30;;;;;;7383028;19;20003;-74
2023/07/26 05:24:45;;;;;;;12.07;3.45;;;17.00;88.50;;;;;;7385133;19;20251;-74
2023/07/26 05:27:14;;;;;;;9.23;5.47;;;17.00;88.80;;;;;;7400895;19;20014;-74
2023/07/26 05:29:43;;;;;;;7.57;4.97;;;17.00;89.00;;;;;;7378976;19;20016;-74
2023/07/26 05:32:11;;;;;;;7.18;3.45;;;17.00;89.10;;;;;;7378552;19;20006;-74
2023/07/26 05:34:41;;;;;;;26.75;3.85;;;17.10;89.40;;;;;;7379376;19;20055;-74
2023/07/26 05:37:11;;;;;;;7.03;3.50;;;17.10;89.40;;;;;;7378552;19;20062;-74
2023/07/26 05:39:42;;;;;;;5.07;3.08;;;17.10;89.30;;;;;;7380452;19;20013;-74
2023/07/26 05:42:11;;;;;;;;;;;17.10;89.30;;;;;;7410670;19;20011;-74
2023/07/26 05:44:41;;;;;;;6.57;3.53;;;17.20;89.40;;;;;;7389330;19;19911;-74
2023/07/26 05:47:12;;;;;;;4.57;3.17;;;17.20;89.50;;;;;;7390409;19;20003;-74
2023/07/26 05:49:43;;;;;;;6.00;3.40;;;17.30;89.70;;;;;;7387340;19;20369;-74
2023/07/26 05:52:13;;;;;;;5.82;3.80;;;17.30;89.70;;;;;;7385501;19;20086;-74
2023/07/26 05:54:44;;;;;;;6.18;2.92;;;17.40;89.70;;;;;;7384611;19;20282;-74
2023/07/26 05:57:13;;;;;;;7.55;3.50;;;17.40;89.70;;;;;;7406130;19;20365;-74
2023/07/26 05:59:41;;;;;;;6.25;3.42;;;17.50;90.00;;;;;;7384038;19;20011;-74
2023/07/26 06:02:10;;;;;;;5.55;3.55;;;17.50;90.00;;;;;;7381644;19;20019;-74
2023/07/26 06:04:40;;;;;;;6.20;3.13;;;17.50;90.00;;;;;;7384166;19;20002;-74
2023/07/26 06:07:11;;;;;;;6.57;3.75;;;17.60;90.10;;;;;;7383884;19;20015;-74
2023/07/26 06:09:41;;;;;;;48.10;5.25;;;17.60;90.10;;;;;;7384533;19;20017;-74
2023/07/26 06:12:13;;;;;;;41.67;9.32;;;17.60;90.20;;;;;;7404430;19;20023;-74
2023/07/26 06:14:42;;;;;;;92.90;17.10;;;17.70;90.40;;;;;;7383467;19;20010;-74
2023/07/26 06:17:12;;;;;;;139.63;25.50;;;17.70;90.50;;;;;;7382938;19;20251;-74
2023/07/26 06:19:40;;;;;;;24.23;6.95;;;17.70;90.70;;;;;;7382412;19;20007;-74
2023/07/26 06:22:09;;;;;;;17.85;5.75;;;17.80;90.70;;;;;;7382548;19;20054;-74
2023/07/26 06:24:38;;;;;;;22.75;5.22;;;17.80;90.90;;;;;;7382997;19;20254;-74
2023/07/26 06:27:07;;;;;;;11.07;5.93;;;17.90;91.00;;;;;;7404357;19;20343;-74
2023/07/26 06:29:38;;;;;;;20.02;6.22;;;17.90;91.10;;;;;;7382511;19;20027;-74
2023/07/26 06:32:08;;;;;;;19.25;7.20;;;17.90;91.60;;;;;;7382551;19;20014;-74
2023/07/26 06:34:36;;;;;;;19.10;6.32;;;18.00;91.30;;;;;;7383055;19;20003;-74
2023/07/26 06:37:05;;;;;;;13.00;6.70;;;18.00;91.30;;;;;;7382662;19;20023;-74
2023/07/26 06:39:34;;;;;;;20.33;6.13;;;18.00;91.40;;;;;;7383775;19;20015;-74
2023/07/26 06:42:03;;;;;;;18.92;6.88;;;18.00;91.70;;;;;;7403221;19;20019;-72
2023/07/26 06:44:31;;;;;;;18.25;7.03;;;17.90;92.20;;;;;;7382129;19;20083;-73
2023/07/26 06:47:03;;;;;;;18.38;7.60;;;17.80;92.60;;;;;;7381904;19;20297;-73
2023/07/26 06:49:31;;;;;;;19.20;7.03;;;17.90;92.80;;;;;;7382913;19;20015;-74
2023/07/26 06:52:00;;;;;;;18.98;7.57;;;17.90;93.20;;;;;;7380238;19;20023;-73
2023/07/26 06:54:29;;;;;;;17.88;8.05;;;17.90;92.90;;;;;;7382625;19;20020;-74
2023/07/26 06:56:57;;;;;;;20.40;7.63;;;17.90;93.00;;;;;;7403615;19;20007;-73
2023/07/26 06:59:26;;;;;;;16.63;7.05;;;18.00;93.60;;;;;;7381581;19;20003;-73
2023/07/26 07:01:55;;;;;;;18.35;6.63;;;18.10;93.30;;;;;;7380351;19;20002;-73
2023/07/26 07:04:26;;;;;;;18.13;6.82;;;18.20;93.20;;;;;;7381995;19;20303;-74
2023/07/26 07:06:55;;;;;;;17.40;7.35;;;18.30;93.10;;;;;;7382210;19;20015;-74
2023/07/26 07:09:24;;;;;;;23.55;7.03;;;18.50;93.00;;;;;;7379693;19;20034;-73
2023/07/26 07:11:52;;;;;;;16.48;7.35;;;18.50;92.90;;;;;;7402042;19;20385;-74
2023/07/26 07:14:21;;;;;;;13.13;6.10;;;18.60;92.80;;;;;;7382056;19;20023;-74
2023/07/26 07:16:50;;;;;;;15.57;6.03;;;18.70;92.80;;;;;;7381493;19;20019;-73
2023/07/26 07:19:18;;;;;;;26.85;6.40;;;18.80;92.90;;;;;;7381262;19;20015;-74
2023/07/26 07:21:50;;;;;;;16.10;5.95;;;18.80;92.90;;;;;;7381603;19;20294;-73
2023/07/26 07:24:18;;;;;;;14.65;6.78;;;19.00;92.80;;;;;;7382302;19;20031;-74
2023/07/26 07:26:47;;;;;;;12.82;6.13;;;19.10;92.60;;;;;;7403654;19;20108;-73
2023/07/26 07:29:16;;;;;;;17.08;7.28;;;19.20;92.50;;;;;;7381895;19;20010;-74
2023/07/26 07:31:44;;;;;;;15.95;7.07;;;19.30;92.40;;;;;;7381206;19;20393;-74
2023/07/26 07:34:13;;;;;;;18.88;7.20;;;19.30;92.30;;;;;;7381190;19;20002;-74
2023/07/26 07:36:42;;;;;;;16.38;6.28;;;19.40;92.30;;;;;;7381492;19;20027;-74
2023/07/26 07:39:13;;;;;;;21.20;6.25;;;19.40;92.10;;;;;;7403719;19;20369;-74
2023/07/26 07:41:42;;;;;;;23.95;6.80;;;19.50;91.90;;;;;;7380149;19;20003;-74
2023/07/26 07:44:10;;;;;;;15.75;6.05;;;19.60;92.00;;;;;;7380304;19;20003;-74
2023/07/26 07:46:39;;;;;;;15.13;5.90;;;19.60;92.00;;;;;;7380776;19;20042;-74
2023/07/26 07:49:08;;;;;;;20.67;6.20;;;19.70;91.90;;;;;;7380707;19;20003;-74
2023/07/26 07:51:38;;;;;;;18.20;5.85;;;19.70;91.80;;;;;;7380591;19;20402;-74
2023/07/26 07:54:06;;;;;;;21.35;6.55;;;19.70;91.70;;;;;;7402246;19;20003;-74
2023/07/26 07:56:38;;;;;;;18.65;5.57;;;19.80;91.30;;;;;;7379649;19;20260;-74
2023/07/26 07:59:06;;;;;;;10.75;5.00;;;19.80;91.10;;;;;;7380194;19;20409;-74
2023/07/26 08:01:35;;;;;;;13.02;5.15;;;19.80;91.10;;;;;;7380134;19;20035;-73
2023/07/26 08:04:04;;;;;;;16.42;4.90;;;19.80;91.00;;;;;;7380504;19;20010;-73
2023/07/26 08:06:33;;;;;;;11.05;4.40;;;19.80;90.70;;;;;;7381991;19;20009;-73
2023/07/26 08:09:01;;;;;;;14.90;5.00;;;19.80;90.60;;;;;;7402869;19;20007;-73
2023/07/26 08:11:30;;;;;;;18.75;5.07;;;19.70;90.30;;;;;;7379184;19;19999;-74
2023/07/26 08:14:02;;;;;;;10.18;4.43;;;19.60;90.30;;;;;;7379768;19;20062;-73
2023/07/26 08:16:30;;;;;;;13.70;3.92;;;19.60;90.40;;;;;;7380444;19;19999;-75
2023/07/26 08:19:03;;;;;;;14.73;4.13;;;19.60;90.40;;;;;;7379936;19;20006;-74
2023/07/26 08:21:31;;;;;;;12.75;3.78;;;19.60;90.00;;;;;;7379230;19;20096;-74
2023/07/26 08:24:00;;;;;;;9.13;3.33;;;19.70;88.60;;;;;;7400692;19;20015;-74
2023/07/26 08:26:29;;;;;;;15.63;3.75;;;19.70;88.40;;;;;;7378626;19;20005;-74
2023/07/26 08:28:57;;;;;;;8.88;2.95;;;19.80;88.60;;;;;;7379108;19;20010;-74
2023/07/26 08:31:29;;;;;;;6.80;3.70;;;19.80;88.00;;;;;;7379880;19;20002;-74
2023/07/26 08:33:57;;;;;;;;;;;19.80;87.20;;;;;;7380149;19;20463;-74
2023/07/26 08:36:26;;;;;;;7.47;2.95;;;19.60;86.00;;;;;;7382431;19;20184;-74
2023/07/26 08:38:54;;;;;;;9.93;2.85;;;19.60;85.50;;;;;;7400383;19;20023;-75
2023/07/26 08:41:24;;;;;;;7.50;2.80;;;19.60;84.50;;;;;;7378521;19;20007;-74
2023/07/26 08:43:56;;;;;;;10.60;2.42;;;19.60;84.30;;;;;;7379101;19;20003;-74
2023/07/26 08:46:28;;;;;;;7.05;2.60;;;19.50;83.70;;;;;;7379019;19;20689;-74
2023/07/26 08:48:57;;;;;;;5.88;2.50;;;19.60;83.80;;;;;;7379743;19;20019;-74
2023/07/26 08:51:27;;;;;;;6.85;2.60;;;19.70;82.90;;;;;;7378927;19;20020;-74
2023/07/26 08:53:57;;;;;;;8.82;2.58;;;19.70;83.20;;;;;;7400350;19;20015;-74
2023/07/26 08:56:28;;;;;;;10.15;2.35;;;19.70;82.50;;;;;;7378240;19;20020;-74
2023/07/26 08:58:56;;;;;;;7.90;2.10;;;19.40;83.30;;;;;;7378928;19;20011;-75
2023/07/26 09:01:29;;;;;;;6.88;2.63;;;19.60;82.30;;;;;;7377145;19;20010;-74
2023/07/26 09:03:57;;;;;;;3.97;2.30;;;19.60;81.40;;;;;;7378946;19;20472;-74
2023/07/26 09:06:26;;;;;;;4.47;2.40;;;19.70;81.40;;;;;;7378561;19;20010;-74
2023/07/26 09:08:55;;;;;;;7.45;2.22;;;19.80;81.10;;;;;;7398238;19;20019;-74
2023/07/26 09:11:25;;;;;;;5.93;1.98;;;19.80;81.30;;;;;;7377719;19;20019;-74
2023/07/26 09:13:57;;;;;;;6.45;2.65;;;19.80;81.60;;;;;;7379340;19;20027;-74
2023/07/26 09:16:29;;;;;;;8.02;2.15;;;19.80;81.40;;;;;;7386071;19;20007;-74
2023/07/26 09:18:59;;;;;;;7.82;2.40;;;19.90;80.30;;;;;;7385825;19;20130;-74
2023/07/26 09:21:30;;;;;;;7.18;2.08;;;19.80;80.10;;;;;;7386616;19;20028;-74
2023/07/26 09:23:59;;;;;;;9.55;2.10;;;19.90;80.60;;;;;;7404957;19;20010;-72
2023/07/26 09:26:39;;;;;;;4.82;1.98;;;19.90;77.90;;;;;;7386502;19;20260;-74
2023/07/26 09:29:12;;;;;;;8.15;1.52;;;19.90;78.80;;;;;;7388172;19;20007;-73
2023/07/26 09:31:44;;;;;;;5.95;2.10;;;19.80;77.90;;;;;;7391057;19;20007;-73
2023/07/26 09:34:16;;;;;;;9.88;1.90;;;19.70;77.70;;;;;;7389609;19;20361;-73
2023/07/26 09:36:47;;;;;;;6.95;2.00;;;19.80;78.00;;;;;;7387857;19;20026;-73
2023/07/26 09:39:17;;;;;;;6.93;2.13;;;19.80;77.20;;;;;;7390170;19;20007;-73
2023/07/26 09:41:48;;;;;;;8.00;1.80;;;19.80;77.80;;;;;;7412927;19;20083;-73
2023/07/26 09:44:18;;;;;;;6.15;1.80;;;19.90;77.90;;;;;;7390675;19;20007;-73
2023/07/26 09:46:56;;;;;;;5.97;1.83;;;19.70;77.70;;;;;;7391101;19;20002;-73
2023/07/26 09:49:26;;;;;;;5.07;2.13;;;19.90;78.60;;;;;;7390364;19;20003;-73
2023/07/26 09:51:58;;;;;;;4.60;1.70;;;20.00;79.00;;;;;;7390104;19;20007;-74
2023/07/26 09:54:29;;;;;;;12.07;2.45;;;20.00;78.80;;;;;;7389059;19;20018;-74
2023/07/26 09:56:59;;;;;;;5.13;2.10;;;20.10;79.40;;;;;;7409648;19;20586;-73
2023/07/26 09:59:29;;;;;;;9.32;2.10;;;20.20;78.80;;;;;;7387738;19;20288;-72
2023/07/26 10:02:10;;;;;;;10.93;2.15;;;20.40;77.70;;;;;;7386898;19;20239;-74
2023/07/26 10:04:45;;;;;;;4.50;1.70;;;20.30;77.80;;;;;;7388330;19;20013;-74
2023/07/26 10:07:15;;;;;;;5.85;2.03;;;20.20;77.30;;;;;;7386767;19;20373;-74
2023/07/26 10:09:46;;;;;;;6.38;1.85;;;20.20;75.40;;;;;;7387079;19;20400;-72
2023/07/26 10:12:15;;;;;;;3.43;1.57;;;20.30;74.70;;;;;;7403684;19;20028;-74
2023/07/26 10:14:45;;;;;;;6.68;1.90;;;20.20;74.10;;;;;;7405836;19;20386;-73
2023/07/26 10:17:18;;;;;;;9.50;2.10;;;20.40;75.30;;;;;;7383208;19;20006;-75
2023/07/26 10:19:51;;;;;;;2.70;1.85;;;20.50;74.80;;;;;;7384011;19;20007;-73
2023/07/26 10:22:20;;;;;;;5.40;1.88;;;20.60;73.40;;;;;;7382871;19;20003;-74
2023/07/26 10:24:49;;;;;;;5.60;1.73;;;20.70;74.90;;;;;;7384248;19;20054;-73
2023/07/26 10:27:18;;;;;;;6.60;1.98;;;20.80;74.00;;;;;;7382858;19;20011;-73
2023/07/26 10:29:50;;;;;;;4.57;1.80;;;20.90;73.70;;;;;;7405055;19;20010;-73
2023/07/26 10:32:21;;;;;;;3.67;1.98;;;21.10;73.40;;;;;;7383653;19;20013;-73
2023/07/26 10:34:56;;;;;;;4.82;2.30;;;21.20;73.00;;;;;;7383314;19;20026;-74
2023/07/26 10:37:26;;;;;;;6.63;3.70;;;21.20;71.70;;;;;;7382045;19;20344;-74
2023/07/26 10:39:54;;;;;;;3.97;1.83;;;21.30;71.60;;;;;;7382840;19;20419;-74
2023/07/26 10:42:27;;;;;;;3.78;1.92;;;21.00;70.10;;;;;;7382156;19;20071;-74
2023/07/26 10:44:56;;;;;;;2.88;1.75;;;21.10;71.10;;;;;;7403884;19;19999;-74
2023/07/26 10:47:28;;;;;;;11.77;2.08;;;21.30;70.00;;;;;;7381733;19;20011;-73
2023/07/26 10:50:00;;;;;;;3.38;1.80;;;21.40;70.60;;;;;;7382018;19;20003;-74
2023/07/26 10:52:38;;;;;;;3.47;1.70;;;21.30;71.10;;;;;;7382343;19;20007;-73
2023/07/26 10:55:22;;;;;;;6.47;1.95;;;21.30;70.20;;;;;;7382875;19;20066;-75
2023/07/26 10:57:52;;;;;;;3.45;1.70;;;21.20;67.60;;;;;;7382221;19;20095;-74
2023/07/26 11:00:34;;;;;;;5.05;2.05;;;21.30;69.10;;;;;;7382900;19;20003;-74
2023/07/26 11:03:05;;;;;;;5.88;1.75;;;21.40;67.70;;;;;;7402959;19;20035;-73
2023/07/26 11:05:34;;;;;;;3.15;1.67;;;21.50;69.20;;;;;;7381599;19;20275;-74
2023/07/26 11:08:04;;;;;;;5.10;1.92;;;21.50;66.30;;;;;;7381297;19;20289;-74
2023/07/26 11:10:35;;;;;;;4.82;1.98;;;21.60;68.20;;;;;;7382091;19;20007;-74
2023/07/26 11:13:11;;;;;;;4.70;1.67;;;21.70;69.00;;;;;;7380816;19;20007;-74
2023/07/26 11:15:43;;;;;;;4.13;2.15;;;21.80;68.60;;;;;;7382201;19;20339;-73
2023/07/26 11:18:16;;;;;;;4.43;1.80;;;21.90;68.90;;;;;;7400877;19;20003;-73
2023/07/26 11:20:47;;;;;;;6.82;2.00;;;22.00;68.80;;;;;;7381313;19;20092;-73
2023/07/26 11:23:20;;;;;;;5.22;1.85;;;22.20;68.30;;;;;;7380553;19;20011;-74
2023/07/26 11:25:49;;;;;;;4.57;1.95;;;22.10;67.30;;;;;;7380371;19;20421;-74
2023/07/26 11:28:19;;;;;;;4.63;2.05;;;22.10;68.50;;;;;;7379523;19;20070;-74
2023/07/26 11:30:50;;;;;;;8.55;2.08;;;22.20;68.70;;;;;;7381095;19;20058;-73
2023/07/26 11:33:30;;;;;;;;;;;22.20;68.60;;;;;;7381535;19;20027;-74
2023/07/26 11:36:00;;;;;;;4.80;2.20;;;22.10;68.70;;;;;;7403375;19;19911;-75
2023/07/26 11:38:29;;;;;;;3.58;1.90;;;22.20;69.00;;;;;;7377840;19;20066;-74
2023/07/26 11:40:58;;;;;;;8.82;1.92;;;22.10;69.40;;;;;;7380765;19;20003;-74
2023/07/26 11:43:28;;;;;;;4.57;1.95;;;22.10;69.00;;;;;;7379998;19;20012;-74
2023/07/26 11:45:57;;;;;;;4.82;1.92;;;22.20;69.10;;;;;;7380840;19;20247;-74
2023/07/26 11:48:29;;;;;;;4.68;1.90;;;22.20;69.20;;;;;;7382131;19;20006;-74
2023/07/26 11:51:03;;;;;;;5.50;1.95;;;22.30;69.10;;;;;;7400684;19;20010;-76
2023/07/26 11:53:33;;;;;;;5.22;1.92;;;22.40;69.20;;;;;;7380514;19;20003;-75
2023/07/26 11:56:04;;;;;;;4.30;1.88;;;22.50;70.00;;;;;;7380835;19;20007;-75
2023/07/26 11:58:37;;;;;;;3.70;1.98;;;22.60;69.50;;;;;;7380555;19;20362;-74
2023/07/26 12:01:06;;;;;;;6.97;1.80;;;22.70;68.90;;;;;;7380389;19;20010;-74
2023/07/26 12:03:35;;;;;;;5.07;2.00;;;22.80;68.80;;;;;;7380438;19;19988;-73
2023/07/26 12:06:07;;;;;;;6.15;1.98;;;22.80;69.10;;;;;;7402047;19;20066;-74
2023/07/26 12:08:37;;;;;;;2.65;1.77;;;22.80;68.30;;;;;;7382837;19;20079;-75
2023/07/26 12:11:06;;;;;;;3.75;2.15;;;22.80;68.40;;;;;;7380928;19;20021;-75
2023/07/26 12:13:36;;;;;;;6.40;2.13;;;22.90;68.30;;;;;;7379222;19;20033;-74
2023/07/26 12:16:09;;;;;;;5.75;2.00;;;22.90;67.70;;;;;;7379562;19;20021;-75
2023/07/26 12:18:37;;;;;;;5.55;1.73;;;23.00;67.50;;;;;;7379423;19;20007;-74
2023/07/26 12:21:10;;;;;;;5.35;2.10;;;23.20;67.60;;;;;;7401125;19;20262;-75
2023/07/26 12:23:53;;;;;;;6.88;1.90;;;23.20;67.50;;;;;;7379263;19;20055;-74
2023/07/26 12:26:23;;;;;;;4.60;2.10;;;23.50;66.20;;;;;;7379454;19;20045;-74
2023/07/26 12:28:53;;;;;;;5.85;1.92;;;23.40;66.70;;;;;;7379315;19;20014;-75
2023/07/26 12:31:23;;;;;;;4.38;2.10;;;23.50;67.40;;;;;;7379676;19;20002;-74
2023/07/26 12:34:00;;;;;;;5.47;1.77;;;23.30;66.70;;;;;;7379506;19;20010;-75
2023/07/26 12:36:33;;;;;;;5.35;1.98;;;23.30;67.60;;;;;;7379135;19;20380;-74
2023/07/26 12:39:04;;;;;;;5.13;2.05;;;23.30;67.60;;;;;;7400590;19;20091;-74
2023/07/26 12:41:35;;;;;;;4.40;1.88;;;23.40;68.10;;;;;;7378301;19;20006;-74
2023/07/26 12:44:06;;;;;;;5.00;1.63;;;23.40;66.90;;;;;;7377970;19;20055;-74
2023/07/26 12:46:35;;;;;;;5.60;1.98;;;23.50;67.20;;;;;;7379292;19;20006;-74
2023/07/26 12:49:06;;;;;;;5.60;1.85;;;23.60;66.40;;;;;;7377993;19;20015;-73
2023/07/26 12:51:38;;;;;;;6.75;2.10;;;23.60;65.10;;;;;;7379893;19;20019;-75
2023/07/26 12:54:06;;;;;;;3.72;2.10;;;23.80;66.60;;;;;;7400723;19;20346;-74
2023/07/26 12:56:35;;;;;;;5.50;2.10;;;23.80;66.60;;;;;;7378752;19;20007;-74
2023/07/26 12:59:04;;;;;;;8.43;2.17;;;23.90;66.60;;;;;;7378471;19;20025;-77
2023/07/26 13:01:33;;;;;;;3.50;1.70;;;23.90;66.40;;;;;;7379141;19;20002;-74
2023/07/26 13:04:01;;;;;;;6.13;2.00;;;24.00;66.20;;;;;;7378755;19;20023;-75
2023/07/26 13:06:30;;;;;;;7.07;2.35;;;24.20;66.00;;;;;;7380965;19;20358;-75
2023/07/26 13:09:01;;;;;;;3.47;1.98;;;24.40;64.70;;;;;;7398974;19;20024;-75
2023/07/26 13:11:30;;;;;;;3.95;1.90;;;24.30;63.50;;;;;;7378659;19;20372;-73
2023/07/26 13:14:01;;;;;;;3.97;1.98;;;24.40;63.60;;;;;;7378618;19;20010;-74
2023/07/26 13:16:32;;;;;;;4.28;2.08;;;24.30;63.50;;;;;;7383788;19;20024;-74
2023/07/26 13:19:02;;;;;;;4.47;1.95;;;24.40;64.70;;;;;;7380448;19;20027;-73
2023/07/26 13:21:31;;;;;;;9.98;2.33;;;24.50;64.10;;;;;;7379826;19;20003;-73
2023/07/26 13:24:02;;;;;;;4.68;2.13;;;24.50;64.50;;;;;;7402497;19;20009;-74
2023/07/26 13:26:31;;;;;;;5.38;2.20;;;24.40;64.60;;;;;;7380206;19;20003;-74
2023/07/26 13:29:00;;;;;;;3.42;1.80;;;24.40;62.60;;;;;;7381433;19;20022;-75
2023/07/26 13:31:29;;;;;;;2.42;1.83;;;24.50;62.60;;;;;;7382455;19;20003;-74
2023/07/26 13:33:58;;;;;;;2.95;1.98;;;24.40;62.70;;;;;;7381742;19;20013;-74
2023/07/26 13:36:29;;;;;;;4.03;2.05;;;24.50;63.20;;;;;;7381296;19;20068;-75
2023/07/26 13:38:58;;;;;;;2.67;1.80;;;24.40;63.50;;;;;;7402979;19;20010;-73
2023/07/26 13:41:29;;;;;;;4.38;1.98;;;24.40;64.10;;;;;;7381071;19;20058;-74
2023/07/26 13:43:57;;;;;;;;;;;24.60;62.90;;;;;;7380473;19;20020;-74
2023/07/26 13:46:26;;;;;;;6.55;1.85;;;24.50;63.80;;;;;;7382709;19;19902;-74
2023/07/26 13:48:56;;;;;;;6.68;1.92;;;24.50;64.10;;;;;;7382317;19;20003;-74
2023/07/26 13:51:25;;;;;;;5.90;1.70;;;24.60;62.90;;;;;;7378586;19;20011;-75
2023/07/26 13:53:53;;;;;;;3.85;2.05;;;24.80;63.00;;;;;;7401268;19;20100;-74
2023/07/26 13:56:22;;;;;;;7.85;2.30;;;24.80;62.50;;;;;;7379205;19;20079;-74
2023/07/26 13:58:53;;;;;;;4.15;1.98;;;24.90;62.20;;;;;;7379761;19;20006;-74
2023/07/26 14:01:22;;;;;;;5.72;2.00;;;24.80;62.50;;;;;;7380024;19;20076;-74
2023/07/26 14:03:51;;;;;;;3.72;1.80;;;24.60;63.00;;;;;;7386002;19;20067;-74
2023/07/26 14:06:20;;;;;;;4.35;2.20;;;24.70;63.30;;;;;;7386421;19;20351;-74
2023/07/26 14:08:49;;;;;;;6.72;2.10;;;24.70;63.50;;;;;;7404642;19;20007;-74
2023/07/26 14:11:18;;;;;;;6.40;1.95;;;24.70;63.30;;;;;;7385138;19;20070;-74
2023/07/26 14:13:47;;;;;;;6.05;2.03;;;24.80;62.80;;;;;;7383718;19;20279;-74
2023/07/26 14:16:18;;;;;;;5.00;2.00;;;24.90;62.80;;;;;;7384757;19;20020;-74
2023/07/26 14:18:47;;;;;;;6.72;2.00;;;24.90;63.20;;;;;;7383837;19;20091;-74
2023/07/26 14:21:17;;;;;;;7.30;1.98;;;25.00;62.50;;;;;;7391597;19;20342;-74
2023/07/26 14:23:46;;;;;;;3.53;1.75;;;25.10;63.00;;;;;;7404020;19;20088;-74
2023/07/26 14:26:15;;;;;;;3.58;2.00;;;25.10;62.60;;;;;;7382434;19;20377;-73
2023/07/26 14:28:43;;;;;;;3.53;1.85;;;25.00;61.80;;;;;;7383450;19;20071;-74
2023/07/26 14:31:12;;;;;;;2.58;1.60;;;24.90;61.80;;;;;;7383053;19;20324;-74
2023/07/26 14:33:43;;;;;;;4.43;1.95;;;24.80;61.80;;;;;;7383621;19;20010;-74
2023/07/26 14:36:12;;;;;;;3.80;1.92;;;24.80;61.80;;;;;;7402386;19;20007;-74
2023/07/26 14:38:41;;;;;;;4.30;1.70;;;24.90;62.60;;;;;;7383218;19;20067;-74
2023/07/26 14:41:09;;;;;;;3.40;2.00;;;25.00;61.00;;;;;;7382823;19;20019;-74
2023/07/26 14:43:38;;;;;;;5.72;2.20;;;25.00;61.40;;;;;;7383510;19;20377;-73
2023/07/26 14:46:07;;;;;;;3.10;1.88;;;24.90;62.00;;;;;;7384607;19;20002;-74
2023/07/26 14:48:36;;;;;;;4.32;1.80;;;24.90;62.60;;;;;;7386098;19;19992;-74
2023/07/26 14:51:07;;;;;;;4.47;1.83;;;24.70;63.00;;;;;;7405481;19;20370;-75
2023/07/26 14:53:36;;;;;;;3.78;1.98;;;24.70;63.60;;;;;;7384574;19;20308;-75
2023/07/26 14:56:04;;;;;;;5.55;1.60;;;24.60;62.90;;;;;;7386067;19;20015;-75
2023/07/26 14:58:33;;;;;;;2.28;1.45;;;24.70;63.50;;;;;;7386026;19;20007;-75
2023/07/26 15:01:03;;;;;;;2.42;1.60;;;24.90;62.90;;;;;;7383931;19;20011;-75
2023/07/26 15:03:32;;;;;;;6.80;1.98;;;25.10;62.30;;;;;;7382545;19;20025;-75
2023/07/26 15:06:01;;;;;;;2.80;1.67;;;25.20;62.80;;;;;;7404587;19;20031;-74
2023/07/26 15:08:32;;;;;;;3.70;1.50;;;25.30;62.40;;;;;;7381839;19;20061;-74
2023/07/26 15:11:01;;;;;;;4.40;1.63;;;25.40;62.10;;;;;;7384127;19;20023;-75
2023/07/26 15:13:30;;;;;;;6.03;1.80;;;25.40;61.90;;;;;;7385024;19;20290;-75
2023/07/26 15:15:58;;;;;;;2.97;1.52;;;25.30;61.80;;;;;;7386898;19;20015;-75
2023/07/26 15:18:27;;;;;;;4.95;1.80;;;25.20;62.00;;;;;;7384611;19;20020;-74
2023/07/26 15:20:58;;;;;;;6.63;1.70;;;25.10;61.90;;;;;;7404613;19;20011;-74
2023/07/26 15:23:27;;;;;;;7.82;1.42;;;24.90;62.90;;;;;;7381094;19;20070;-73
2023/07/26 15:25:58;;;;;;;4.50;1.80;;;25.00;63.80;;;;;;7382409;19;20014;-74
2023/07/26 15:28:27;;;;;;;;;;;25.00;63.60;;;;;;7385109;19;20010;-74
2023/07/26 15:30:55;;;;;;;5.70;1.85;;;25.00;62.90;;;;;;7384738;19;19920;-74
2023/07/26 15:33:24;;;;;;;7.03;2.75;;;24.90;62.50;;;;;;7381046;19;20389;-74
2023/07/26 15:35:53;;;;;;;7.45;1.48;;;24.90;63.20;;;;;;7402670;19;20058;-74
2023/07/26 15:38:22;;;;;;;2.92;1.40;;;24.90;63.10;;;;;;7381076;19;20007;-75
2023/07/26 15:40:51;;;;;;;2.83;1.38;;;24.90;62.70;;;;;;7381124;19;20002;-75
2023/07/26 15:43:22;;;;;;;3.38;1.40;;;24.80;62.50;;;;;;7381639;19;20006;-74
2023/07/26 15:45:51;;;;;;;1.75;1.10;;;24.90;63.50;;;;;;7380207;19;20011;-74
2023/07/26 15:48:19;;;;;;;5.35;1.48;;;25.00;63.30;;;;;;7381134;19;20006;-75
2023/07/26 15:50:48;;;;;;;5.50;1.42;;;25.50;62.30;;;;;;7401861;19;20007;-74
2023/07/26 15:53:20;;;;;;;3.42;1.50;;;26.00;60.80;;;;;;7380045;19;20011;-75
2023/07/26 15:55:49;;;;;;;7.47;1.52;;;26.20;59.90;;;;;;7380846;19;19999;-75
2023/07/26 15:58:23;;;;;;;1.75;1.15;;;26.30;59.50;;;;;;7381315;19;20396;-75
2023/07/26 16:00:52;;;;;;;4.43;1.45;;;26.40;59.10;;;;;;7381006;19;20002;-75
2023/07/26 16:03:21;;;;;;;6.72;1.55;;;26.40;59.10;;;;;;7379857;19;20347;-75
2023/07/26 16:05:51;;;;;;;4.88;1.50;;;26.30;59.00;;;;;;7404609;19;20066;-74
2023/07/26 16:08:19;;;;;;;2.25;1.35;;;26.20;59.00;;;;;;7384349;19;20055;-75
2023/07/26 16:10:48;;;;;;;3.72;1.48;;;26.00;59.50;;;;;;7383486;19;20019;-74
2023/07/26 16:13:17;;;;;;;5.38;1.55;;;25.90;60.20;;;;;;7380013;19;20007;-74
2023/07/26 16:15:48;;;;;;;3.95;1.38;;;26.30;62.10;;;;;;7380490;19;20011;-74
2023/07/26 16:18:19;;;;;;;4.13;1.70;;;27.40;58.60;;;;;;7379600;19;20661;-74
2023/07/26 16:20:49;;;;;;;;;;;27.30;57.60;;;;;;7402631;19;20302;-74
2023/07/26 16:23:18;;;;;;;5.18;1.38;;;27.00;57.80;;;;;;7382503;19;20673;-74
2023/07/26 16:25:47;;;;;;;3.38;1.45;;;26.80;58.20;;;;;;7382058;19;20006;-74
2023/07/26 16:28:16;;;;;;;2.78;1.40;;;26.70;58.60;;;;;;7381393;19;20006;-75
2023/07/26 16:30:47;;;;;;;1.95;1.20;;;26.50;58.90;;;;;;7379970;19;20007;-74
2023/07/26 16:33:16;;;;;;;6.43;1.50;;;26.40;59.20;;;;;;7380920;19;20227;-74
2023/07/26 16:35:45;;;;;;;1.83;1.30;;;26.40;59.60;;;;;;7400264;19;20234;-75
2023/07/26 16:38:13;;;;;;;8.77;1.55;;;27.00;58.90;;;;;;7378252;19;20283;-75
2023/07/26 16:40:42;;;;;;;3.65;1.50;;;28.00;57.20;;;;;;7378622;19;20010;-75
2023/07/26 16:43:11;;;;;;;5.60;1.70;;;28.30;56.60;;;;;;7379050;19;20027;-75
2023/07/26 16:45:40;;;;;;;3.65;1.50;;;28.30;56.30;;;;;;7378451;19;20007;-75
2023/07/26 16:48:11;;;;;;;1.95;1.30;;;28.40;56.50;;;;;;7399960;19;20062;-74